KGSB Airport (Seymour Johnson Afb) Information

FAA: GSB - ICAO: KGSB

KGSB Airport Location

State North Carolina
County Wayne
City Goldsboro
KGSB Airport is 3 miles southeast of Goldsboro, NC.
Latitude 35-20-21.7850N
Longitude 077-57-38.1400W
Elevation 109ft

KGSB Airport METARs

METAR KGSB 282256Z AUTO 26007KT 10SM CLR 29/11 A2987 RMK AO2 SLP118 T02890110 $
Altimeter 29.87"
Temperature 28.9°C (84.0°F)
Wind 260° at 7KT
Clouds Skies are clear.
Visibility 10.0mi
Time observed: 2022-05-28T22:56:00Z

KGSB Airport Details

Status Operational
Activation N/A
Ownership Military - Air Force
Usage Private
Chart CHARLOTTE
ATC on-site Yes
Beacon schedule sunset-sunrise
Beacon color clear green

KGSB Airport Contacts

Owner USAF AIRFIELD OPS
Owner address 1105 RAPCON PL BLDG 4750, SEYMOUR JOHNSON AFB, NC 27531
Owner phone 919-722-2102
Manager CHARLES CLUTE
Manager address 2700 N. PENINSULA AVE., NEW SMYRNA BEACH, FL 32168
Manager phone (386) 426-1384

KGSB Airport (Seymour Johnson Afb) Radio Frequencies

KGSB (Airport) Radio Frequencies

UNICOM N/A
Common traffic advisory frequency (CTAF) N/A